sim
Sign-in with your pilot id or email,
or register
Callsign
Passwort

Schedule Details

Flight Number: OEO1640
Departure: Hamburg Airport (EDDH) at 08:55
Arrival: Gothenburg Landvetter Airport (ESGG) at 10:10

Weather Information
Getting current METAR information for EDDH 200320Z 14008KT CAVOK 06/05 Q1015 NOSIG
Getting current METAR information for ESGG 200320Z 14009KT 9999 SCT015 BKN033 05/04 Q1014

Schedule Frequency

Route Map